Date,TemperatureHighF,TemperatureAvgF,TemperatureLowF,DewpointHighF,DewpointAvgF,DewpointLowF,HumidityHigh,HumidityAvg,HumidityLow,PressureMaxIn,PressureMinIn,WindSpeedMaxMPH,WindSpeedAvgMPH,GustSpeedMaxMPH,PrecipitationSumIn
2013-3-1,32.7,25.3,17.8,16.6,11.8,6.6,62,56,47,30.39,30.24,11,3,11,0.00
2013-3-2,34.5,23.0,10.2,14.6,7.4,1.5,75,52,40,30.36,30.18,5,1,5,0.00
2013-3-3,36.1,27.5,19.2,14.0,8.3,4.3,55,44,39,30.18,30.00,9,2,9,0.00
2013-3-4,27.7,25.6,23.5,21.9,13.5,6.0,88,61,40,30.06,29.97,12,3,12,0.00
2013-3-5,33.6,27.2,21.6,24.0,20.7,15.0,91,77,59,30.30,30.00,9,2,9,0.00
2013-3-6,31.6,23.8,16.2,17.9,13.8,9.0,81,66,51,30.41,30.30,7,2,8,0.00
2013-3-7,37.0,24.6,12.7,17.4,12.3,7.2,82,61,42,30.39,30.30,8,2,8,0.04
2013-3-8,37.0,23.9,20.7,22.4,15.4,12.2,80,70,54,30.33,30.30,6,2,8,0.00
2013-3-9,36.5,35.7,34.9,36.0,35.1,34.4,98,98,98,29.88,29.74,5,1,5,0.16
2013-3-10,35.1,33.3,30.2,34.4,29.4,24.0,98,86,77,29.97,29.79,12,4,13,0.04
2013-3-11,30.7,28.1,23.7,24.2,20.3,15.1,80,72,60,29.88,29.76,12,3,12,0.00
2013-3-12,30.9,25.6,22.1,16.4,11.7,6.6,73,56,42,30.18,29.85,13,3,14,0.00
2013-3-13,36.0,26.4,14.2,15.0,10.8,6.5,78,53,37,30.36,30.18,7,2,8,0.00
2013-3-14,42.1,32.4,23.7,26.1,21.2,12.6,88,64,50,30.24,30.03,8,2,8,0.04
2013-3-15,34.7,31.8,24.8,31.1,26.9,21.4,90,82,71,30.03,29.85,7,2,8,0.04
2013-3-16,32.9,23.0,14.2,21.5,10.4,-0.6,87,60,43,30.24,29.91,10,3,10,0.00
2013-3-17,29.8,20.1,7.5,14.2,3.3,-6.0,59,48,41,30.24,29.91,10,3,11,0.00
2013-3-18,29.8,23.2,12.2,26.9,14.0,2.0,92,68,47,29.91,29.65,14,4,15,0.00
2013-3-19,26.8,15.6,7.2,6.0,0.0,-7.5,63,51,40,30.18,29.82,13,5,14,0.00
2013-3-20,24.3,14.7,6.1,4.5,-3.6,-11.1,47,43,40,30.21,30.09,13,4,13,0.05
2013-3-21,29.1,18.9,8.6,8.2,1.2,-7.5,50,46,41,30.12,30.03,5,1,6,0.00
2013-3-22,40.5,27.5,12.7,17.3,9.7,0.8,61,47,36,30.12,30.03,5,1,6,0.00
2013-3-23,41.7,31.3,20.7,18.6,14.1,9.4,62,49,38,30.18,30.09,8,1,8,0.00
2013-3-24,33.6,30.6,28.6,22.0,18.0,15.1,71,59,51,30.12,30.00,11,2,11,0.00
2013-3-25,41.0,32.3,22.6,18.8,15.3,11.6,63,50,39,30.24,30.06,10,3,10,0.00
2013-3-26,32.5,30.5,29.1,17.9,17.3,16.5,62,58,52,30.24,30.24,6,2,6,0.00